createdAt,value
2018-06-22T00:02:12.299Z,100.00
2018-06-22T00:04:41.922Z,100.00
2018-06-22T00:07:10.419Z,100.00
2018-06-22T00:09:38.899Z,100.00
2018-06-22T00:12:07.643Z,100.00
2018-06-22T00:14:36.126Z,100.00
2018-06-22T00:17:04.614Z,100.00
2018-06-22T00:19:33.039Z,100.00
2018-06-22T00:22:01.782Z,100.00
2018-06-22T00:24:30.171Z,100.00
2018-06-22T00:26:58.646Z,100.00
2018-06-22T00:29:27.066Z,100.00
2018-06-22T00:31:55.699Z,100.00
2018-06-22T00:34:24.135Z,100.00
2018-06-22T00:36:52.681Z,100.00
2018-06-22T00:39:21.106Z,100.00
2018-06-22T00:41:49.539Z,100.00
2018-06-22T00:44:18.003Z,100.00
2018-06-22T00:46:46.407Z,100.00
2018-06-22T00:49:14.851Z,100.00
2018-06-22T00:51:43.327Z,100.00
2018-06-22T00:54:16.815Z,100.00
2018-06-22T00:56:45.727Z,100.00
2018-06-22T00:59:14.505Z,100.00
2018-06-22T01:01:42.918Z,100.00
2018-06-22T01:04:12.091Z,100.00
2018-06-22T01:17:08.902Z,100.00
2018-06-22T01:19:37.328Z,96.60
2018-06-22T01:22:05.734Z,88.77
2018-06-22T01:24:34.133Z,86.93
2018-06-22T01:27:02.568Z,98.52
2018-06-22T01:29:32.257Z,100.00
2018-06-22T01:32:01.883Z,100.00
2018-06-22T01:34:30.339Z,100.00
2018-06-22T01:36:58.736Z,100.00
2018-06-22T01:39:27.186Z,90.52
2018-06-22T01:41:55.618Z,94.48
2018-06-22T01:44:24.067Z,92.24
2018-06-22T01:46:52.498Z,94.54
2018-06-22T01:49:20.900Z,90.35
2018-06-22T01:51:49.334Z,86.64
2018-06-22T01:54:17.767Z,89.41
2018-06-22T01:56:46.227Z,92.89
2018-06-22T01:59:14.668Z,89.68
2018-06-22T02:01:43.088Z,88.89
2018-06-22T02:04:11.562Z,90.43
2018-06-22T02:06:39.991Z,86.61
2018-06-22T02:09:11.768Z,87.16
2018-06-22T02:11:40.319Z,89.98
2018-06-22T02:14:08.783Z,88.84
2018-06-22T02:16:37.535Z,89.67
2018-06-22T02:19:06.015Z,91.05
2018-06-22T02:21:34.424Z,87.62
2018-06-22T02:24:02.837Z,86.97
2018-06-22T02:26:31.285Z,90.78
2018-06-22T02:28:59.680Z,85.87
2018-06-22T02:31:28.128Z,89.28
2018-06-22T02:33:56.525Z,88.93
2018-06-22T02:36:24.968Z,85.73
2018-06-22T02:38:53.409Z,85.15
2018-06-22T02:41:21.796Z,84.13
2018-06-22T02:43:50.195Z,86.48
2018-06-22T02:46:18.626Z,83.86
2018-06-22T02:48:47.490Z,86.45
2018-06-22T02:51:15.928Z,84.72
2018-06-22T02:53:44.329Z,88.42
2018-06-22T02:56:12.749Z,83.23
2018-06-22T02:58:41.167Z,87.60
2018-06-22T03:01:09.615Z,83.67
2018-06-22T03:03:38.076Z,78.87
2018-06-22T03:06:06.493Z,85.44
2018-06-22T03:08:34.945Z,80.46
2018-06-22T03:11:03.347Z,81.16
2018-06-22T03:13:31.759Z,81.21
2018-06-22T03:16:00.424Z,78.32
2018-06-22T03:18:28.831Z,78.61
2018-06-22T03:20:57.227Z,76.98
2018-06-22T03:23:25.664Z,78.73
2018-06-22T03:25:54.063Z,78.46
2018-06-22T03:28:22.502Z,74.95
2018-06-22T03:30:51.009Z,78.43
2018-06-22T03:33:19.432Z,75.62
2018-06-22T03:35:47.916Z,74.98
2018-06-22T03:38:16.592Z,74.13
2018-06-22T03:40:45.024Z,74.04
2018-06-22T03:43:13.520Z,76.38
2018-06-22T03:45:41.923Z,72.01
2018-06-22T03:48:10.383Z,74.39
2018-06-22T03:50:38.791Z,79.28
2018-06-22T03:53:07.379Z,79.84
2018-06-22T03:55:36.032Z,73.32
2018-06-22T03:58:04.481Z,71.24
2018-06-22T04:00:33.096Z,67.81
2018-06-22T04:03:01.541Z,71.53
2018-06-22T04:05:29.960Z,62.10
2018-06-22T04:07:58.380Z,62.38
2018-06-22T04:10:26.948Z,62.11
2018-06-22T04:12:55.377Z,64.09
2018-06-22T04:15:23.770Z,61.52
2018-06-22T04:19:22.172Z,62.36
2018-06-22T04:21:50.805Z,60.77
2018-06-22T04:24:19.244Z,60.79
2018-06-22T04:26:48.126Z,62.82
2018-06-22T04:29:18.664Z,64.36
2018-06-22T04:31:47.071Z,67.12
2018-06-22T04:34:16.114Z,63.91
2018-06-22T04:36:44.539Z,62.35
2018-06-22T04:39:14.673Z,62.51
2018-06-22T04:41:44.008Z,62.50
2018-06-22T04:44:12.681Z,64.29
2018-06-22T04:46:41.124Z,61.00
2018-06-22T04:49:09.582Z,61.38
2018-06-22T04:51:37.984Z,60.11
2018-06-22T04:54:06.446Z,61.15
2018-06-22T04:56:34.876Z,62.43
2018-06-22T04:59:03.310Z,58.99
2018-06-22T05:01:31.788Z,58.11
2018-06-22T05:04:00.324Z,59.75
2018-06-22T05:06:28.812Z,59.42
2018-06-22T05:08:57.282Z,58.17
2018-06-22T05:11:26.003Z,59.40
2018-06-22T05:13:54.636Z,59.50
2018-06-22T05:16:23.028Z,58.68
2018-06-22T05:18:51.476Z,59.53
2018-06-22T05:21:19.916Z,59.74
2018-06-22T05:23:48.876Z,60.75
2018-06-22T05:26:17.319Z,60.83
2018-06-22T05:28:45.725Z,60.66
2018-06-22T05:31:14.176Z,62.10
2018-06-22T05:33:42.572Z,63.48
2018-06-22T05:36:11.144Z,62.05
2018-06-22T05:38:39.554Z,62.18
2018-06-22T05:41:07.968Z,64.64
2018-06-22T05:43:36.436Z,62.12
2018-06-22T05:46:04.831Z,60.60
2018-06-22T05:48:33.371Z,60.52
2018-06-22T05:51:01.836Z,62.11
2018-06-22T05:53:30.235Z,59.41
2018-06-22T05:55:58.711Z,60.78
2018-06-22T05:58:31.296Z,60.43
2018-06-22T06:01:03.155Z,61.87
2018-06-22T06:03:32.011Z,60.38
2018-06-22T06:06:00.384Z,61.71
2018-06-22T06:08:28.824Z,61.75
2018-06-22T06:10:57.212Z,61.48
2018-06-22T06:13:25.957Z,61.84
2018-06-22T06:15:54.523Z,60.64
2018-06-22T06:18:22.936Z,60.67
2018-06-22T06:20:51.360Z,61.16
2018-06-22T06:23:19.816Z,60.09
2018-06-22T06:25:48.497Z,60.07
2018-06-22T06:28:16.922Z,59.81
2018-06-22T06:30:45.432Z,59.47
2018-06-22T06:33:13.881Z,60.07
2018-06-22T06:35:42.351Z,60.87
2018-06-22T06:38:10.816Z,60.60
2018-06-22T06:40:39.207Z,59.15
2018-06-22T06:43:07.614Z,58.79
2018-06-22T06:45:36.203Z,59.43
2018-06-22T06:48:04.691Z,57.39
2018-06-22T06:50:36.190Z,57.93
2018-06-22T06:53:06.356Z,57.70
2018-06-22T06:55:38.343Z,56.07
2018-06-22T06:58:08.213Z,53.62
2018-06-22T07:00:36.869Z,54.57
2018-06-22T07:03:05.731Z,53.56
2018-06-22T07:05:34.157Z,54.51
2018-06-22T07:08:02.656Z,52.69
2018-06-22T07:10:31.081Z,53.32
2018-06-22T07:12:59.541Z,52.77
2018-06-22T07:15:27.949Z,52.39
2018-06-22T07:17:56.356Z,54.05
2018-06-22T07:20:24.783Z,53.63
2018-06-22T07:22:53.157Z,53.37
2018-06-22T07:25:21.579Z,53.37
2018-06-22T07:27:50.110Z,50.90
2018-06-22T07:30:18.806Z,51.55
2018-06-22T07:32:47.598Z,50.85
2018-06-22T07:35:16.182Z,53.16
2018-06-22T07:37:44.924Z,53.19
2018-06-22T07:40:13.867Z,54.03
2018-06-22T07:42:42.557Z,53.40
2018-06-22T07:45:12.338Z,52.06
2018-06-22T07:47:40.796Z,54.08
2018-06-22T07:50:09.239Z,52.63
2018-06-22T07:52:37.929Z,52.77
2018-06-22T07:55:07.012Z,52.60
2018-06-22T07:57:35.813Z,52.63
2018-06-22T08:00:04.933Z,53.09
2018-06-22T08:02:33.348Z,53.14
2018-06-22T08:05:01.759Z,52.23
2018-06-22T08:07:30.251Z,52.88
2018-06-22T08:09:58.787Z,51.17
2018-06-22T08:12:27.380Z,51.05
2018-06-22T08:14:56.323Z,50.16
2018-06-22T08:17:24.926Z,49.13
2018-06-22T08:19:53.419Z,48.42
2018-06-22T08:22:21.940Z,48.37
2018-06-22T08:24:50.357Z,48.50
2018-06-22T08:27:18.878Z,48.65
2018-06-22T08:29:47.308Z,48.50
2018-06-22T08:32:16.046Z,48.12
2018-06-22T08:34:44.500Z,47.50
2018-06-22T08:37:13.004Z,48.20
2018-06-22T08:39:41.463Z,47.38
2018-06-22T08:42:10.199Z,46.40
2018-06-22T08:44:38.670Z,47.35
2018-06-22T08:47:07.189Z,46.29
2018-06-22T08:49:36.148Z,46.35
2018-06-22T08:52:04.775Z,47.28
2018-06-22T08:54:33.373Z,48.48
2018-06-22T08:57:01.820Z,49.15
2018-06-22T08:59:30.250Z,50.03
2018-06-22T09:01:58.731Z,49.00
2018-06-22T09:04:27.092Z,48.50
2018-06-22T09:06:55.992Z,48.98
2018-06-22T09:09:24.480Z,48.24
2018-06-22T09:11:52.920Z,48.16
2018-06-22T09:14:21.371Z,47.86
2018-06-22T09:16:49.768Z,48.30
2018-06-22T09:19:18.195Z,47.78
2018-06-22T09:21:46.601Z,45.56
2018-06-22T09:24:15.017Z,47.42
2018-06-22T09:26:43.451Z,45.47
2018-06-22T09:29:11.896Z,47.83
2018-06-22T09:31:40.860Z,46.79
2018-06-22T09:34:09.348Z,48.53
2018-06-22T09:36:37.811Z,47.51
2018-06-22T09:39:08.687Z,45.98
2018-06-22T09:41:37.332Z,45.02
2018-06-22T09:44:06.534Z,43.88
2018-06-22T09:46:34.972Z,42.12
2018-06-22T09:49:03.424Z,43.45
2018-06-22T09:51:31.866Z,45.06
2018-06-22T09:54:00.652Z,45.56
2018-06-22T09:56:29.063Z,43.87
2018-06-22T09:58:57.480Z,43.41
2018-06-22T10:01:26.103Z,43.27
2018-06-22T10:03:54.515Z,42.19
2018-06-22T10:06:22.954Z,43.92
2018-06-22T10:08:51.398Z,44.09
2018-06-22T10:11:19.987Z,44.50
2018-06-22T10:13:48.428Z,45.08
2018-06-22T10:16:16.840Z,44.52
2018-06-22T10:18:45.234Z,43.90
2018-06-22T10:21:13.885Z,44.38
2018-06-22T10:23:42.307Z,43.63
2018-06-22T10:26:10.781Z,46.22
2018-06-22T10:28:39.232Z,44.13
2018-06-22T10:37:51.696Z,44.77
2018-06-22T10:40:20.165Z,45.92
2018-06-22T10:42:48.626Z,45.66
2018-06-22T10:45:17.068Z,43.46
2018-06-22T10:47:46.069Z,43.83
2018-06-22T10:50:15.207Z,43.87
2018-06-22T10:52:44.087Z,44.09
2018-06-22T10:55:13.834Z,43.67
2018-06-22T10:57:42.526Z,44.58
2018-06-22T11:00:11.115Z,44.55
2018-06-22T11:02:39.724Z,45.38
2018-06-22T11:05:08.554Z,44.57
2018-06-22T11:07:37.334Z,45.83
2018-06-22T11:10:06.880Z,45.89
2018-06-22T11:12:35.320Z,45.56
2018-06-22T11:15:03.813Z,45.62
2018-06-22T11:19:02.091Z,46.01
2018-06-22T11:21:30.638Z,46.87
2018-06-22T11:23:59.127Z,46.67
2018-06-22T11:26:27.918Z,46.50
2018-06-22T11:28:57.536Z,45.51
2018-06-22T11:31:26.671Z,46.50
2018-06-22T11:33:55.268Z,45.75
2018-06-22T11:36:24.250Z,48.24
2018-06-22T11:38:53.130Z,46.24
2018-06-22T11:41:21.659Z,47.94
2018-06-22T11:43:50.108Z,45.47
2018-06-22T11:46:18.625Z,45.42
2018-06-22T11:48:47.511Z,44.58
2018-06-22T11:51:15.994Z,45.88
2018-06-22T11:53:44.591Z,46.77
2018-06-22T11:56:13.020Z,47.41
2018-06-22T11:58:41.470Z,47.21
2018-06-22T12:01:10.175Z,47.63
2018-06-22T12:03:38.854Z,46.71
2018-06-22T12:06:07.380Z,48.25
2018-06-22T12:08:36.151Z,46.71
2018-06-22T12:11:04.872Z,47.14
2018-06-22T12:13:33.456Z,47.13
2018-06-22T12:16:02.018Z,47.78
2018-06-22T12:18:30.469Z,46.74
2018-06-22T12:20:59.003Z,47.13
2018-06-22T12:23:27.575Z,47.01
2018-06-22T12:25:56.003Z,47.83
2018-06-22T12:28:24.467Z,46.19
2018-06-22T12:30:53.044Z,46.04
2018-06-22T12:33:21.829Z,44.94
2018-06-22T12:35:50.620Z,45.83
2018-06-22T12:38:19.178Z,47.05
2018-06-22T12:40:47.617Z,46.46
2018-06-22T12:43:16.043Z,47.36
2018-06-22T12:45:44.484Z,48.07
2018-06-22T12:48:13.426Z,46.51
2018-06-22T12:50:41.868Z,47.26
2018-06-22T12:53:10.282Z,46.46
2018-06-22T12:55:38.712Z,46.87
2018-06-22T12:58:07.351Z,45.89
2018-06-22T13:00:36.144Z,46.24
2018-06-22T13:03:04.532Z,45.87
2018-06-22T13:05:32.936Z,44.50
2018-06-22T13:08:01.380Z,46.34
2018-06-22T13:10:29.784Z,46.07
2018-06-22T13:12:58.268Z,45.56
2018-06-22T13:15:26.675Z,46.30
2018-06-22T13:17:55.060Z,47.18
2018-06-22T13:20:23.852Z,48.05
2018-06-22T13:22:52.308Z,48.66
2018-06-22T13:25:20.888Z,47.27
2018-06-22T13:27:49.306Z,47.04
2018-06-22T13:30:17.780Z,47.79
2018-06-22T13:32:46.172Z,48.65
2018-06-22T13:35:14.591Z,48.58
2018-06-22T13:37:43.020Z,50.54
2018-06-22T13:40:11.463Z,51.55
2018-06-22T13:42:39.919Z,51.10
2018-06-22T13:45:08.351Z,52.21
2018-06-22T13:47:36.814Z,53.02
2018-06-22T13:50:05.290Z,52.20
2018-06-22T13:52:33.732Z,52.31
2018-06-22T13:55:02.193Z,52.36
2018-06-22T13:57:30.578Z,54.76
2018-06-22T13:59:59.245Z,61.76
2018-06-22T14:02:27.692Z,63.74
2018-06-22T14:05:01.115Z,65.06
2018-06-22T14:07:29.527Z,67.26
2018-06-22T14:09:58.280Z,72.60
2018-06-22T14:12:26.664Z,71.23
2018-06-22T14:14:55.104Z,75.13
2018-06-22T14:17:23.555Z,77.11
2018-06-22T14:19:51.962Z,81.17
2018-06-22T14:22:20.413Z,81.36
2018-06-22T14:24:48.836Z,79.69
2018-06-22T14:27:17.563Z,77.53
2018-06-22T14:29:46.284Z,76.10
2018-06-22T14:32:14.720Z,71.32
2018-06-22T14:34:43.167Z,66.60
2018-06-22T14:37:11.567Z,63.44
2018-06-22T14:39:40.347Z,59.73
2018-06-22T14:42:08.779Z,59.12
2018-06-22T14:44:37.471Z,56.86
2018-06-22T14:47:06.346Z,52.62
2018-06-22T14:49:34.851Z,51.14
2018-06-22T14:52:03.432Z,53.52
2018-06-22T14:54:37.108Z,53.31
2018-06-22T14:57:11.322Z,49.78
2018-06-22T14:59:45.029Z,51.78
2018-06-22T15:02:18.652Z,54.20
2018-06-22T15:04:52.255Z,51.19
2018-06-22T15:07:25.734Z,53.30
2018-06-22T15:09:54.151Z,50.79
2018-06-22T15:12:22.631Z,56.92
2018-06-22T15:14:51.036Z,49.64
2018-06-22T15:17:19.619Z,50.34
2018-06-22T15:19:48.048Z,48.14
2018-06-22T15:22:16.460Z,53.72
2018-06-22T15:24:44.855Z,56.64
2018-06-22T15:27:13.324Z,57.28
2018-06-22T15:29:41.778Z,58.52
2018-06-22T15:32:10.196Z,58.90
2018-06-22T15:34:43.803Z,58.88
2018-06-22T15:37:17.568Z,58.03
2018-06-22T15:39:51.211Z,57.78
2018-06-22T15:42:24.879Z,57.88
2018-06-22T15:44:58.477Z,58.86
2018-06-22T15:47:32.075Z,59.31
2018-06-22T15:50:06.237Z,59.23
2018-06-22T15:52:39.985Z,66.74
2018-06-22T15:55:17.474Z,65.07
2018-06-22T15:57:45.924Z,64.03
2018-06-22T16:00:14.440Z,63.56
2018-06-22T16:02:48.059Z,63.49
2018-06-22T16:05:16.611Z,64.97
2018-06-22T16:07:46.547Z,63.60
2018-06-22T16:10:15.044Z,63.38
2018-06-22T16:12:43.632Z,63.99
2018-06-22T16:15:18.920Z,65.17
2018-06-22T16:17:53.671Z,65.31
2018-06-22T16:20:27.345Z,66.86
2018-06-22T16:23:01.347Z,68.38
2018-06-22T16:25:35.162Z,70.44
2018-06-22T16:28:04.843Z,73.35
2018-06-22T16:30:33.312Z,77.45
2018-06-22T16:33:01.705Z,79.99
2018-06-22T16:35:30.137Z,86.63
2018-06-22T16:37:58.732Z,94.89
2018-06-22T16:40:27.344Z,98.64
2018-06-22T16:42:55.775Z,100.00
2018-06-22T16:45:24.252Z,100.00
2018-06-22T16:47:52.769Z,100.00
2018-06-22T16:50:21.362Z,100.00
2018-06-22T16:52:49.879Z,100.00
2018-06-22T16:55:18.353Z,100.00
2018-06-22T16:57:46.817Z,100.00
2018-06-22T17:00:15.293Z,100.00
2018-06-22T17:02:43.731Z,100.00
2018-06-22T17:05:12.182Z,100.00
2018-06-22T17:07:45.942Z,98.90
2018-06-22T17:10:19.669Z,77.05
2018-06-22T17:12:53.527Z,72.61
2018-06-22T17:15:27.229Z,68.88
2018-06-22T17:18:00.963Z,71.68
2018-06-22T17:20:29.444Z,67.35
2018-06-22T17:22:57.843Z,68.47
2018-06-22T17:25:27.209Z,68.39
2018-06-22T17:27:55.610Z,70.40
2018-06-22T17:30:24.108Z,70.85
2018-06-22T17:32:52.532Z,88.23
2018-06-22T17:35:21.310Z,90.07
2018-06-22T17:44:33.808Z,97.48
2018-06-22T17:47:02.308Z,95.59
2018-06-22T17:49:30.745Z,96.50
2018-06-22T17:51:59.377Z,91.09
2018-06-22T17:54:27.836Z,93.42
2018-06-22T17:56:56.291Z,96.35
2018-06-22T17:59:29.976Z,97.09
2018-06-22T18:02:03.607Z,99.31
2018-06-22T18:04:38.431Z,97.75
2018-06-22T18:07:12.095Z,95.88
2018-06-22T18:09:45.851Z,83.03
2018-06-22T18:12:19.605Z,77.52
2018-06-22T18:14:48.027Z,74.14
2018-06-22T18:17:16.516Z,72.55
2018-06-22T18:19:44.929Z,73.37
2018-06-22T18:22:13.335Z,73.27
2018-06-22T18:27:40.695Z,69.26
2018-06-22T18:30:16.558Z,69.40
2018-06-22T18:32:45.171Z,71.98
2018-06-22T18:35:14.999Z,77.73
2018-06-22T18:37:43.476Z,86.76
2018-06-22T18:40:12.707Z,90.99
2018-06-22T18:42:41.152Z,91.94
2018-06-22T18:45:11.452Z,95.56
2018-06-22T18:47:40.566Z,95.43
2018-06-22T18:50:09.302Z,97.18
2018-06-22T18:52:42.792Z,98.25
2018-06-22T18:55:16.306Z,98.71
2018-06-22T18:57:50.103Z,99.59
2018-06-22T19:00:23.565Z,98.18
2018-06-22T19:02:57.278Z,99.55
2018-06-22T19:05:26.271Z,99.71
2018-06-22T19:07:54.691Z,100.00
2018-06-22T19:10:23.135Z,100.00
2018-06-22T19:12:51.684Z,99.91
2018-06-22T19:15:20.434Z,100.00
2018-06-22T19:17:48.912Z,100.00
2018-06-22T19:20:17.428Z,100.00
2018-06-22T19:22:45.864Z,100.00
2018-06-22T19:25:14.292Z,100.00
2018-06-22T19:27:43.111Z,100.00
2018-06-22T19:30:14.648Z,100.00
2018-06-22T19:32:43.211Z,100.00
2018-06-22T19:35:12.748Z,100.00
2018-06-22T19:37:42.646Z,100.00
2018-06-22T19:40:11.128Z,100.00
2018-06-22T19:42:39.561Z,100.00
2018-06-22T19:45:13.323Z,100.00
2018-06-22T19:47:47.201Z,100.00
2018-06-22T19:50:20.755Z,100.00
2018-06-22T19:52:54.264Z,100.00
2018-06-22T19:55:22.971Z,100.00
2018-06-22T19:57:51.412Z,100.00
2018-06-22T20:00:19.827Z,100.00
2018-06-22T20:02:48.272Z,100.00
2018-06-22T20:05:16.768Z,100.00
2018-06-22T20:07:45.175Z,100.00
2018-06-22T20:10:13.624Z,100.00
2018-06-22T20:12:42.071Z,100.00
2018-06-22T20:15:10.528Z,100.00
2018-06-22T20:17:38.993Z,100.00
2018-06-22T20:20:07.836Z,100.00
2018-06-22T20:22:36.419Z,100.00
2018-06-22T20:25:10.100Z,100.00
2018-06-22T20:27:38.563Z,100.00
2018-06-22T20:30:06.987Z,100.00
2018-06-22T20:32:35.428Z,100.00
2018-06-22T20:37:15.547Z,100.00
2018-06-22T20:39:49.458Z,100.00
2018-06-22T20:42:23.193Z,100.00
2018-06-22T20:44:56.878Z,100.00
2018-06-22T20:47:30.649Z,100.00
2018-06-22T20:50:04.438Z,100.00
2018-06-22T20:52:32.928Z,100.00
2018-06-22T20:55:01.399Z,100.00
2018-06-22T20:57:30.475Z,100.00
2018-06-22T20:59:59.055Z,100.00
2018-06-22T21:02:27.463Z,100.00
2018-06-22T21:04:56.207Z,100.00
2018-06-22T21:07:24.964Z,100.00
2018-06-22T21:09:53.623Z,100.00
2018-06-22T21:12:26.256Z,100.00
2018-06-22T21:14:50.515Z,100.00
2018-06-22T21:17:19.464Z,100.00
2018-06-22T21:19:48.132Z,100.00
2018-06-22T21:22:16.684Z,100.00
2018-06-22T21:24:45.154Z,100.00
2018-06-22T21:27:18.818Z,100.00
2018-06-22T21:29:52.636Z,100.00
2018-06-22T21:32:26.131Z,100.00
2018-06-22T21:34:59.615Z,100.00
2018-06-22T21:37:33.363Z,100.00
2018-06-22T21:40:01.933Z,100.00
2018-06-22T21:42:30.303Z,100.00
2018-06-22T21:44:58.707Z,100.00
2018-06-22T21:47:27.167Z,100.00
2018-06-22T21:49:55.558Z,100.00
2018-06-22T21:52:24.034Z,100.00
2018-06-22T21:54:52.492Z,100.00
2018-06-22T21:57:20.965Z,100.00
2018-06-22T21:59:49.559Z,100.00
2018-06-22T22:02:18.006Z,100.00
2018-06-22T22:04:46.426Z,100.00
2018-06-22T22:07:14.858Z,100.00
2018-06-22T22:09:44.274Z,100.00
2018-06-22T22:12:12.835Z,100.00
2018-06-22T22:14:42.091Z,100.00
2018-06-22T22:17:10.527Z,100.00
2018-06-22T22:19:39.612Z,100.00
2018-06-22T22:22:08.540Z,100.00
2018-06-22T22:24:36.986Z,100.00
2018-06-22T22:27:05.552Z,100.00
2018-06-22T22:29:34.138Z,100.00
2018-06-22T22:32:02.583Z,100.00
2018-06-22T22:34:31.033Z,100.00
2018-06-22T22:36:59.484Z,100.00
2018-06-22T22:39:27.919Z,100.00
2018-06-22T22:41:56.396Z,100.00
2018-06-22T22:44:24.843Z,100.00
2018-06-22T22:46:53.275Z,100.00
2018-06-22T22:49:21.735Z,100.00
2018-06-22T22:51:50.164Z,100.00
2018-06-22T22:54:18.585Z,100.00
2018-06-22T22:56:47.051Z,100.00
2018-06-22T22:59:15.492Z,100.00
2018-06-22T23:01:43.900Z,100.00
2018-06-22T23:04:12.316Z,100.00
2018-06-22T23:06:40.704Z,100.00
2018-06-22T23:09:09.748Z,100.00
2018-06-22T23:11:38.185Z,100.00
2018-06-22T23:14:06.879Z,100.00
2018-06-22T23:16:35.507Z,100.00
2018-06-22T23:19:04.079Z,100.00
2018-06-22T23:21:32.523Z,100.00
2018-06-22T23:24:00.962Z,100.00
2018-06-22T23:26:29.402Z,100.00
2018-06-22T23:28:57.811Z,100.00
2018-06-22T23:31:26.349Z,100.00
2018-06-22T23:33:54.785Z,100.00
2018-06-22T23:36:23.207Z,100.00
2018-06-22T23:38:51.680Z,100.00
2018-06-22T23:41:20.135Z,100.00
2018-06-22T23:43:48.616Z,100.00
2018-06-22T23:46:17.119Z,100.00
2018-06-22T23:48:45.728Z,100.00
2018-06-22T23:51:14.189Z,100.00
2018-06-22T23:53:42.579Z,100.00
2018-06-22T23:56:11.197Z,100.00
2018-06-22T23:58:39.606Z,100.00
